createdAt,value
2022-10-19T00:02:22.754Z,101763.13
2022-10-19T00:04:49.387Z,101753.94
2022-10-19T00:07:16.004Z,101749.34
2022-10-19T00:09:45.472Z,101746.88
2022-10-19T00:12:12.914Z,101750.94
2022-10-19T00:14:39.502Z,101754.44
2022-10-19T00:17:06.058Z,101744.69
2022-10-19T00:19:32.650Z,101746.81
2022-10-19T00:21:59.284Z,101745.75
2022-10-19T00:24:25.906Z,101754.41
2022-10-19T00:26:52.493Z,101755.22
2022-10-19T00:29:19.267Z,101760.09
2022-10-19T00:31:45.957Z,101751.16
2022-10-19T00:34:12.600Z,101748.44
2022-10-19T00:36:40.646Z,101758.19
2022-10-19T00:39:11.334Z,101745.19
2022-10-19T00:41:38.210Z,101750.56
2022-10-19T00:44:30.148Z,101739.13
2022-10-19T00:47:04.923Z,101739.31
2022-10-19T00:49:35.841Z,101749.84
2022-10-19T00:52:06.142Z,101742.53
2022-10-19T00:54:34.166Z,101732.00
2022-10-19T00:57:00.955Z,101736.88
2022-10-19T00:59:31.638Z,101736.91
2022-10-19T01:01:59.364Z,101738.81
2022-10-19T01:04:27.064Z,101742.88
2022-10-19T01:06:54.789Z,101734.25
2022-10-19T01:09:21.394Z,101733.72
2022-10-19T01:12:00.541Z,101727.75
2022-10-19T01:14:39.120Z,101726.16
2022-10-19T01:17:39.650Z,101726.69
2022-10-19T01:20:24.636Z,101716.91
2022-10-19T01:23:15.989Z,101715.78
2022-10-19T01:26:10.279Z,101715.53
2022-10-19T01:28:55.287Z,101715.78
2022-10-19T01:31:31.895Z,101713.63
2022-10-19T01:34:20.692Z,101704.41
2022-10-19T01:37:01.271Z,101709.03
2022-10-19T01:39:53.072Z,101700.59
2022-10-19T01:42:37.489Z,101699.50
2022-10-19T01:45:18.924Z,101699.50
2022-10-19T01:47:53.138Z,101701.66
2022-10-19T01:50:24.753Z,101694.84
2022-10-19T01:52:53.999Z,101683.72
2022-10-19T01:55:22.173Z,101688.88
2022-10-19T01:57:59.370Z,101679.41
2022-10-19T02:00:27.471Z,101690.78
2022-10-19T02:02:55.410Z,101684.28
2022-10-19T02:05:27.596Z,101686.41
2022-10-19T02:08:02.467Z,101685.88
2022-10-19T02:10:32.485Z,101684.28
2022-10-19T02:13:00.731Z,101684.81
2022-10-19T02:15:30.934Z,101677.81
2022-10-19T02:18:01.428Z,101685.13
2022-10-19T02:20:28.632Z,101679.16
2022-10-19T02:22:55.482Z,101682.69
2022-10-19T02:25:23.249Z,101682.19
2022-10-19T02:27:52.302Z,101684.88
2022-10-19T02:30:20.414Z,101689.19
2022-10-19T02:32:47.490Z,101693.50
2022-10-19T02:35:14.772Z,101690.22
2022-10-19T02:37:41.932Z,101684.22
2022-10-19T02:40:09.548Z,101684.22
2022-10-19T02:42:41.939Z,101691.78
2022-10-19T02:45:11.284Z,101682.84
2022-10-19T02:47:44.936Z,101681.22
2022-10-19T02:50:13.504Z,101669.03
2022-10-19T02:52:40.892Z,101666.88
2022-10-19T02:55:08.757Z,101675.00
2022-10-19T02:57:36.041Z,101670.69
2022-10-19T03:00:08.799Z,101665.28
2022-10-19T03:02:35.684Z,101670.41
2022-10-19T03:05:03.029Z,101666.88
2022-10-19T03:07:29.748Z,101670.16
2022-10-19T03:09:56.307Z,101669.59
2022-10-19T03:12:23.173Z,101667.75
2022-10-19T03:14:49.773Z,101663.44
2022-10-19T03:17:16.319Z,101662.66
2022-10-19T03:19:42.894Z,101659.13
2022-10-19T03:22:09.442Z,101665.31
2022-10-19T03:24:36.028Z,101665.59
2022-10-19T03:27:02.641Z,101662.66
2022-10-19T03:29:29.153Z,101659.13
2022-10-19T03:31:55.764Z,101656.38
2022-10-19T03:34:22.397Z,101660.63
2022-10-19T03:36:48.944Z,101654.91
2022-10-19T03:39:17.217Z,101660.31
2022-10-19T03:41:43.991Z,101648.69
2022-10-19T03:44:11.419Z,101659.28
2022-10-19T03:46:38.931Z,101656.31
2022-10-19T03:49:05.974Z,101656.09
2022-10-19T03:51:33.573Z,101654.72
2022-10-19T03:54:05.323Z,101650.44
2022-10-19T03:56:33.401Z,101655.03
2022-10-19T03:59:01.201Z,101656.13
2022-10-19T04:01:40.257Z,101656.13
2022-10-19T04:04:12.826Z,101659.09
2022-10-19T04:06:41.703Z,101666.94
2022-10-19T04:09:11.358Z,101663.69
2022-10-19T04:11:37.825Z,101664.75
2022-10-19T04:14:04.749Z,101660.38
2022-10-19T04:16:32.699Z,101659.31
2022-10-19T04:19:00.233Z,101667.94
2022-10-19T04:21:28.209Z,101662.78
2022-10-19T04:24:02.673Z,101663.56
2022-10-19T04:26:29.826Z,101664.13
2022-10-19T04:29:00.847Z,101673.28
2022-10-19T04:31:28.493Z,101671.66
2022-10-19T04:33:55.634Z,101675.97
2022-10-19T04:36:23.640Z,101668.91
2022-10-19T04:38:50.245Z,101680.28
2022-10-19T04:41:19.195Z,101678.91
2022-10-19T04:43:46.953Z,101682.38
2022-10-19T04:46:20.526Z,101679.38
2022-10-19T04:48:49.348Z,101676.91
2022-10-19T04:51:17.055Z,101669.66
2022-10-19T04:53:44.533Z,101655.59
2022-10-19T04:56:17.237Z,101662.13
2022-10-19T04:58:44.281Z,101651.00
2022-10-19T05:01:17.030Z,101660.75
2022-10-19T05:03:44.101Z,101642.91
2022-10-19T05:06:12.253Z,101641.91
2022-10-19T05:08:39.614Z,101636.25
2022-10-19T05:11:09.857Z,101635.44
2022-10-19T05:13:36.835Z,101637.81
2022-10-19T05:16:05.722Z,101628.84
2022-10-19T05:18:32.932Z,101630.41
2022-10-19T05:21:11.578Z,101635.81
2022-10-19T05:23:39.476Z,101635.56
2022-10-19T05:26:15.429Z,101636.94
2022-10-19T05:28:42.150Z,101638.81
2022-10-19T05:31:11.683Z,101633.13
2022-10-19T05:33:38.920Z,101624.47
2022-10-19T05:36:16.353Z,101628.81
2022-10-19T05:38:44.482Z,101631.78
2022-10-19T05:41:11.374Z,101632.53
2022-10-19T05:43:37.983Z,101635.72
2022-10-19T05:46:13.152Z,101636.69
2022-10-19T05:48:40.763Z,101637.72
2022-10-19T05:51:10.140Z,101634.47
2022-10-19T05:56:08.148Z,101638.25
2022-10-19T05:58:36.075Z,101636.94
2022-10-19T06:01:02.688Z,101636.13
2022-10-19T06:03:29.750Z,101635.59
2022-10-19T06:05:56.404Z,101642.72
2022-10-19T06:08:24.278Z,101637.38
2022-10-19T06:10:51.400Z,101642.28
2022-10-19T06:13:19.812Z,101640.69
2022-10-19T06:15:50.544Z,101641.00
2022-10-19T06:18:17.072Z,101639.94
2022-10-19T06:20:43.623Z,101644.66
2022-10-19T06:23:10.169Z,101641.97
2022-10-19T06:25:36.738Z,101632.78
2022-10-19T06:28:04.038Z,101629.56
2022-10-19T06:30:30.598Z,101635.22
2022-10-19T06:32:58.775Z,101643.03
2022-10-19T06:35:25.512Z,101641.69
2022-10-19T06:37:52.055Z,101646.63
2022-10-19T06:40:18.589Z,101642.31
2022-10-19T06:42:45.304Z,101644.72
2022-10-19T06:45:11.894Z,101650.97
2022-10-19T06:47:38.712Z,101661.25
2022-10-19T06:50:06.614Z,101652.34
2022-10-19T06:52:34.628Z,101653.69
2022-10-19T06:55:02.133Z,101659.34
2022-10-19T06:57:28.757Z,101657.25
2022-10-19T06:59:55.566Z,101663.22
2022-10-19T07:02:22.164Z,101658.09
2022-10-19T07:04:48.730Z,101669.47
2022-10-19T07:07:15.396Z,101663.31
2022-10-19T07:09:41.989Z,101666.34
2022-10-19T07:12:10.837Z,101665.56
2022-10-19T07:14:39.675Z,101660.66
2022-10-19T07:17:07.557Z,101662.31
2022-10-19T07:19:34.923Z,101662.81
2022-10-19T07:22:01.923Z,101666.66
2022-10-19T07:24:28.538Z,101671.03
2022-10-19T07:26:55.842Z,101671.56
2022-10-19T07:29:22.717Z,101677.28
2022-10-19T07:31:49.310Z,101686.19
2022-10-19T07:34:16.470Z,101682.09
2022-10-19T07:36:46.101Z,101681.00
2022-10-19T07:39:13.178Z,101681.84
2022-10-19T07:41:39.893Z,101685.03
2022-10-19T07:44:08.200Z,101682.06
2022-10-19T07:46:39.355Z,101670.97
2022-10-19T07:49:12.731Z,101678.06
2022-10-19T07:51:40.058Z,101686.78
2022-10-19T07:54:06.960Z,101679.22
2022-10-19T07:56:36.512Z,101677.84
2022-10-19T07:59:04.908Z,101687.88
2022-10-19T08:01:34.136Z,101687.56
2022-10-19T08:06:47.910Z,101688.41
2022-10-19T08:09:33.503Z,101687.03
2022-10-19T08:12:02.132Z,101698.72
2022-10-19T08:14:28.760Z,101687.31
2022-10-19T08:16:55.330Z,101692.75
2022-10-19T08:19:22.923Z,101686.75
2022-10-19T08:21:50.331Z,101687.88
2022-10-19T08:24:19.384Z,101676.47
2022-10-19T08:26:46.612Z,101675.69
2022-10-19T08:29:15.711Z,101679.75
2022-10-19T08:31:44.318Z,101679.19
2022-10-19T08:34:11.958Z,101683.00
2022-10-19T08:36:39.160Z,101676.22
2022-10-19T08:39:07.684Z,101676.78
2022-10-19T08:41:40.176Z,101673.75
2022-10-19T08:44:22.179Z,101674.84
2022-10-19T08:47:23.221Z,101674.84
2022-10-19T08:49:50.560Z,101672.09
2022-10-19T08:52:24.641Z,101667.19
2022-10-19T08:54:53.696Z,101668.28
2022-10-19T08:57:38.962Z,101664.47
2022-10-19T09:00:21.146Z,101663.31
2022-10-19T09:03:04.156Z,101667.09
2022-10-19T09:05:54.953Z,101664.16
2022-10-19T09:08:21.751Z,101660.09
2022-10-19T09:10:51.745Z,101664.50
2022-10-19T09:14:04.079Z,101678.28
2022-10-19T09:16:31.709Z,101674.78
2022-10-19T09:18:58.506Z,101672.06
2022-10-19T09:21:45.944Z,101674.47
2022-10-19T09:24:26.215Z,101661.75
2022-10-19T09:26:56.228Z,101660.19
2022-10-19T09:29:41.903Z,101659.94
2022-10-19T09:32:18.216Z,101658.59
2022-10-19T09:34:49.891Z,101661.00
2022-10-19T09:37:23.476Z,101656.97
2022-10-19T09:39:54.870Z,101657.59
2022-10-19T09:42:33.099Z,101647.75
2022-10-19T09:45:16.399Z,101657.34
2022-10-19T09:47:47.800Z,101653.34
2022-10-19T09:50:17.630Z,101652.09
2022-10-19T09:52:46.776Z,101653.13
2022-10-19T09:55:13.316Z,101650.06
2022-10-19T09:57:51.004Z,101644.88
2022-10-19T10:00:21.108Z,101652.66
2022-10-19T10:02:53.095Z,101642.84
2022-10-19T10:05:29.561Z,101640.41
2022-10-19T10:07:56.294Z,101641.19
2022-10-19T10:10:42.707Z,101636.41
2022-10-19T10:13:17.923Z,101641.88
2022-10-19T10:15:49.315Z,101635.81
2022-10-19T10:18:19.014Z,101637.75
2022-10-19T10:21:11.236Z,101638.06
2022-10-19T10:23:38.247Z,101645.25
2022-10-19T10:26:15.332Z,101640.06
2022-10-19T10:28:50.634Z,101631.28
2022-10-19T10:31:26.355Z,101640.69
2022-10-19T10:34:10.829Z,101640.28
2022-10-19T10:36:51.256Z,101638.38
2022-10-19T10:39:18.137Z,101633.84
2022-10-19T10:41:47.870Z,101635.75
2022-10-19T10:44:20.332Z,101628.63
2022-10-19T10:46:57.579Z,101630.69
2022-10-19T10:49:26.565Z,101627.34
2022-10-19T10:51:57.378Z,101610.66
2022-10-19T10:54:31.305Z,101609.16
2022-10-19T11:00:28.971Z,101593.59
2022-10-19T11:03:02.049Z,101582.66
2022-10-19T11:05:33.668Z,101568.63
2022-10-19T11:08:12.925Z,101577.34
2022-10-19T11:10:46.580Z,101565.00
2022-10-19T11:13:16.859Z,101564.69
2022-10-19T11:16:05.008Z,101563.50
2022-10-19T11:18:37.812Z,101558.28
2022-10-19T11:21:11.422Z,101552.41
2022-10-19T11:23:41.034Z,101548.88
2022-10-19T11:26:23.751Z,101536.69
2022-10-19T11:28:56.446Z,101534.94
2022-10-19T11:31:34.694Z,101527.84
2022-10-19T11:34:04.119Z,101525.59
2022-10-19T11:36:45.823Z,101517.19
2022-10-19T11:39:39.873Z,101523.00
2022-10-19T11:42:12.387Z,101512.56
2022-10-19T11:44:57.373Z,101510.69
2022-10-19T11:48:00.011Z,101508.22
2022-10-19T11:51:04.172Z,101499.38
2022-10-19T11:53:56.510Z,101499.38
2022-10-19T11:56:44.715Z,101498.19
2022-10-19T11:59:32.079Z,101499.88
2022-10-19T12:02:18.663Z,101494.69
2022-10-19T12:04:51.388Z,101490.97
2022-10-19T12:07:43.102Z,101491.09
2022-10-19T12:10:25.246Z,101485.16
2022-10-19T12:13:04.688Z,101490.50
2022-10-19T12:16:01.643Z,101482.31
2022-10-19T12:18:40.498Z,101485.63
2022-10-19T12:21:35.652Z,101487.56
2022-10-19T12:24:06.659Z,101485.25
2022-10-19T12:26:36.781Z,101481.91
2022-10-19T12:29:10.275Z,101478.31
2022-10-19T12:31:37.223Z,101478.91
2022-10-19T12:34:22.892Z,101471.78
2022-10-19T12:36:49.429Z,101471.97
2022-10-19T12:39:26.481Z,101468.13
2022-10-19T12:41:58.927Z,101467.75
2022-10-19T12:44:57.776Z,101457.47
2022-10-19T12:47:26.010Z,101443.31
2022-10-19T12:49:55.077Z,101451.09
2022-10-19T12:52:53.008Z,101433.78
2022-10-19T12:55:27.634Z,101438.94
2022-10-19T12:58:20.783Z,101429.00
2022-10-19T13:01:03.603Z,101425.91
2022-10-19T13:03:34.669Z,101436.09
2022-10-19T13:06:09.105Z,101427.44
2022-10-19T13:08:43.485Z,101428.59
2022-10-19T13:11:15.327Z,101418.94
2022-10-19T13:14:03.563Z,101416.97
2022-10-19T13:16:30.168Z,101409.91
2022-10-19T13:19:20.594Z,101403.47
2022-10-19T13:21:51.742Z,101397.41
2022-10-19T13:24:24.388Z,101392.75
2022-10-19T13:27:03.179Z,101393.94
2022-10-19T13:29:40.336Z,101392.63
2022-10-19T13:32:44.796Z,101391.97
2022-10-19T13:35:25.558Z,101386.47
2022-10-19T13:38:16.921Z,101378.34
2022-10-19T13:40:49.673Z,101384.72
2022-10-19T13:43:22.956Z,101371.03
2022-10-19T13:46:10.496Z,101373.06
2022-10-19T13:48:59.047Z,101364.63
2022-10-19T13:51:44.324Z,101362.56
2022-10-19T13:54:35.837Z,101361.88
2022-10-19T13:57:11.625Z,101357.44
2022-10-19T13:59:56.846Z,101360.66
2022-10-19T14:02:45.998Z,101358.97
2022-10-19T14:05:25.785Z,101351.22
2022-10-19T14:08:14.048Z,101350.28
2022-10-19T14:11:00.089Z,101351.16
2022-10-19T14:13:28.422Z,101349.53
2022-10-19T14:15:57.263Z,101346.56
2022-10-19T14:18:29.171Z,101359.94
2022-10-19T14:21:02.049Z,101361.16
2022-10-19T14:23:31.350Z,101358.44
2022-10-19T14:26:12.144Z,101346.94
2022-10-19T14:28:40.531Z,101344.38
2022-10-19T14:31:09.939Z,101336.38
2022-10-19T14:33:40.447Z,101335.53
2022-10-19T14:36:14.167Z,101322.22
2022-10-19T14:38:45.813Z,101313.84
2022-10-19T14:41:36.994Z,101308.47
2022-10-19T14:44:30.210Z,101327.13
2022-10-19T14:46:56.906Z,101326.88
2022-10-19T14:49:23.566Z,101321.78
2022-10-19T14:52:01.748Z,101329.81
2022-10-19T14:54:40.446Z,101324.53
2022-10-19T14:57:11.841Z,101326.88
2022-10-19T14:59:47.220Z,101326.88
2022-10-19T15:02:27.967Z,101322.31
2022-10-19T15:04:58.579Z,101326.22
2022-10-19T15:07:29.645Z,101328.69
2022-10-19T15:10:01.179Z,101330.25
2022-10-19T15:12:46.574Z,101313.84
2022-10-19T15:15:19.319Z,101310.59
2022-10-19T15:17:56.706Z,101311.13
2022-10-19T15:20:28.893Z,101307.72
2022-10-19T15:22:57.781Z,101313.84
2022-10-19T15:25:24.691Z,101313.16
2022-10-19T15:27:53.578Z,101308.88
2022-10-19T15:30:31.453Z,101312.75
2022-10-19T15:33:13.364Z,101296.34
2022-10-19T15:35:43.947Z,101290.72
2022-10-19T15:38:14.536Z,101295.38
2022-10-19T15:40:43.820Z,101292.13
2022-10-19T15:43:35.274Z,101298.09
2022-10-19T15:46:09.071Z,101298.31
2022-10-19T15:48:41.667Z,101294.88
2022-10-19T15:51:23.295Z,101288.63
2022-10-19T15:53:58.363Z,101296.19
2022-10-19T15:56:27.623Z,101295.19
2022-10-19T15:58:59.249Z,101293.06
2022-10-19T16:01:28.477Z,101284.72
2022-10-19T16:03:58.519Z,101292.63
2022-10-19T16:06:28.712Z,101290.44
2022-10-19T16:08:55.894Z,101287.75
2022-10-19T16:11:23.296Z,101282.09
2022-10-19T16:13:50.197Z,101291.63
2022-10-19T16:16:29.498Z,101290.81
2022-10-19T16:18:56.704Z,101292.19
2022-10-19T16:21:30.167Z,101291.16
2022-10-19T16:23:57.107Z,101288.72
2022-10-19T16:26:25.992Z,101291.19
2022-10-19T16:28:54.187Z,101294.97
2022-10-19T16:31:22.029Z,101290.38
2022-10-19T16:33:48.675Z,101291.19
2022-10-19T16:36:15.477Z,101293.91
2022-10-19T16:38:42.167Z,101296.06
2022-10-19T16:41:10.349Z,101286.34
2022-10-19T16:43:37.459Z,101289.06
2022-10-19T16:46:05.064Z,101286.34
2022-10-19T16:48:32.436Z,101286.63
2022-10-19T16:51:10.289Z,101287.44
2022-10-19T16:53:38.399Z,101286.34
2022-10-19T16:56:07.794Z,101282.03
2022-10-19T16:58:34.927Z,101289.88
2022-10-19T17:01:10.090Z,101294.97
2022-10-19T17:03:36.940Z,101297.66
2022-10-19T17:06:06.130Z,101294.44
2022-10-19T17:08:37.074Z,101292.00
2022-10-19T17:11:21.413Z,101286.59
2022-10-19T17:13:50.601Z,101284.69
2022-10-19T17:16:19.547Z,101284.69
2022-10-19T17:18:47.177Z,101282.00
2022-10-19T17:21:17.235Z,101282.53
2022-10-19T17:23:44.654Z,101275.50
2022-10-19T17:26:12.348Z,101286.31
2022-10-19T17:28:40.224Z,101273.34
2022-10-19T17:31:10.550Z,101285.78
2022-10-19T17:33:39.010Z,101273.34
2022-10-19T17:36:18.903Z,101290.06
2022-10-19T17:38:47.595Z,101291.13
2022-10-19T17:41:17.767Z,101291.41
2022-10-19T17:43:47.014Z,101289.50
2022-10-19T17:46:16.949Z,101294.09
2022-10-19T17:48:45.162Z,101293.78
2022-10-19T17:51:20.620Z,101293.25
2022-10-19T17:53:48.744Z,101301.34
2022-10-19T17:56:18.801Z,101293.22
2022-10-19T17:58:46.153Z,101295.63
2022-10-19T18:01:14.080Z,101301.31
2022-10-19T18:03:41.548Z,101296.47
2022-10-19T18:06:17.427Z,101299.16
2022-10-19T18:08:47.139Z,101305.09
2022-10-19T18:11:19.457Z,101298.06
2022-10-19T18:13:46.870Z,101295.34
2022-10-19T18:16:17.350Z,101293.22
2022-10-19T18:18:48.484Z,101289.69
2022-10-19T18:21:21.152Z,101290.75
2022-10-19T18:23:48.324Z,101293.72
2022-10-19T18:26:19.812Z,101304.78
2022-10-19T18:28:46.683Z,101295.59
2022-10-19T18:31:19.805Z,101293.44
2022-10-19T18:33:47.548Z,101293.72
2022-10-19T18:36:14.341Z,101282.91
2022-10-19T18:38:42.078Z,101281.28
2022-10-19T18:43:39.448Z,101280.72
2022-10-19T18:46:07.258Z,101270.47
2022-10-19T18:48:35.537Z,101268.84
2022-10-19T18:51:07.191Z,101271.84
2022-10-19T18:53:34.555Z,101268.03
2022-10-19T18:56:04.058Z,101265.59
2022-10-19T18:58:31.065Z,101268.59
2022-10-19T19:01:09.864Z,101264.00
2022-10-19T19:03:38.342Z,101265.91
2022-10-19T19:06:07.910Z,101270.78
2022-10-19T19:08:34.663Z,101267.78
2022-10-19T19:11:21.423Z,101272.13
2022-10-19T19:13:55.210Z,101265.66
2022-10-19T19:16:23.150Z,101262.41
2022-10-19T19:18:49.993Z,101264.03
2022-10-19T19:21:22.366Z,101261.06
2022-10-19T19:23:50.647Z,101265.38
2022-10-19T19:26:18.061Z,101264.34
2022-10-19T19:28:47.713Z,101253.53
2022-10-19T19:31:18.123Z,101257.63
2022-10-19T19:33:46.102Z,101250.03
2022-10-19T19:36:14.605Z,101251.38
2022-10-19T19:38:41.847Z,101245.16
2022-10-19T19:41:10.936Z,101248.09
2022-10-19T19:43:38.244Z,101243.81
2022-10-19T19:46:09.474Z,101243.25
2022-10-19T19:48:37.208Z,101242.44
2022-10-19T19:51:04.572Z,101236.22
2022-10-19T19:53:31.654Z,101234.31
2022-10-19T19:55:58.264Z,101232.19
2022-10-19T19:58:24.838Z,101218.13
2022-10-19T20:00:51.380Z,101223.50
2022-10-19T20:03:18.119Z,101220.25
2022-10-19T20:05:44.794Z,101219.69
2022-10-19T20:08:11.546Z,101223.50
2022-10-19T20:10:42.464Z,101223.50
2022-10-19T20:13:09.272Z,101222.94
2022-10-19T20:15:39.470Z,101222.41
2022-10-19T20:18:06.696Z,101214.84
2022-10-19T20:20:33.421Z,101216.44
2022-10-19T20:22:59.971Z,101214.81
2022-10-19T20:25:26.765Z,101211.03
2022-10-19T20:27:53.492Z,101221.00
2022-10-19T20:30:20.747Z,101223.97
2022-10-19T20:32:47.447Z,101216.97
2022-10-19T20:35:14.118Z,101219.38
2022-10-19T20:37:40.760Z,101218.28
2022-10-19T20:40:08.897Z,101216.66
2022-10-19T20:42:36.424Z,101215.31
2022-10-19T20:45:03.897Z,101211.53
2022-10-19T20:47:30.656Z,101199.66
2022-10-19T20:49:57.426Z,101207.72
2022-10-19T20:52:24.143Z,101208.78
2022-10-19T20:54:50.733Z,101203.94
2022-10-19T20:57:17.464Z,101207.16
2022-10-19T20:59:45.676Z,101209.84
2022-10-19T21:02:12.359Z,101205.28
2022-10-19T21:04:39.028Z,101200.69
2022-10-19T21:07:05.636Z,101200.41
2022-10-19T21:09:32.423Z,101205.78
2022-10-19T21:12:01.084Z,101201.75
2022-10-19T21:14:29.833Z,101195.81
2022-10-19T21:16:58.108Z,101186.91
2022-10-19T21:19:29.007Z,101195.00
2022-10-19T21:22:03.632Z,101204.94
2022-10-19T21:24:33.496Z,101204.69
2022-10-19T21:27:01.587Z,101198.75
2022-10-19T21:29:28.414Z,101197.94
2022-10-19T21:31:55.068Z,101196.84
2022-10-19T21:34:24.191Z,101198.44
2022-10-19T21:36:51.059Z,101190.91
2022-10-19T21:39:18.236Z,101181.47
2022-10-19T21:41:45.207Z,101178.53
2022-10-19T21:44:12.458Z,101173.13
2022-10-19T21:46:39.170Z,101168.53
2022-10-19T21:49:05.920Z,101162.34
2022-10-19T21:51:46.617Z,101171.50
2022-10-19T21:54:16.052Z,101169.06
2022-10-19T21:56:43.971Z,101162.84
2022-10-19T21:59:12.119Z,101165.00
2022-10-19T22:01:41.272Z,101170.94
2022-10-19T22:04:17.081Z,101164.72
2022-10-19T22:06:43.782Z,101171.44
2022-10-19T22:09:18.317Z,101167.13
2022-10-19T22:11:46.036Z,101167.63
2022-10-19T22:14:15.525Z,101167.09
2022-10-19T22:16:42.636Z,101156.84
2022-10-19T22:19:10.010Z,101147.41
2022-10-19T22:24:12.474Z,101135.53
2022-10-19T22:26:42.871Z,101129.31
2022-10-19T22:29:09.581Z,101130.16
2022-10-19T22:31:37.339Z,101136.88
2022-10-19T22:34:06.629Z,101132.56
2022-10-19T22:36:33.295Z,101123.69
2022-10-19T22:38:59.933Z,101127.72
2022-10-19T22:41:26.527Z,101124.47
2022-10-19T22:43:53.147Z,101125.53
2022-10-19T22:46:19.777Z,101106.13
2022-10-19T22:48:46.441Z,101103.72
2022-10-19T22:51:13.098Z,101105.56
2022-10-19T22:53:39.737Z,101099.63
2022-10-19T22:56:06.809Z,101102.31
2022-10-19T22:58:33.428Z,101097.78
2022-10-19T23:01:01.892Z,101092.38
2022-10-19T23:03:28.574Z,101079.16
2022-10-19T23:05:55.198Z,101074.31
2022-10-19T23:08:21.794Z,101072.69
2022-10-19T23:10:48.471Z,101078.31
2022-10-19T23:13:15.193Z,101069.97
2022-10-19T23:15:43.933Z,101079.91
2022-10-19T23:18:11.167Z,101082.91
2022-10-19T23:20:37.722Z,101079.34
2022-10-19T23:23:05.407Z,101075.31
2022-10-19T23:28:03.565Z,101062.09
2022-10-19T23:30:30.180Z,101062.88
2022-10-19T23:32:56.712Z,101046.97
2022-10-19T23:35:23.330Z,101046.09
2022-10-19T23:37:49.879Z,101052.81
2022-10-19T23:40:16.465Z,101054.13
2022-10-19T23:42:43.042Z,101053.06
2022-10-19T23:45:10.104Z,101062.28
2022-10-19T23:47:37.028Z,101053.06
2022-10-19T23:50:03.919Z,101049.84
2022-10-19T23:52:30.512Z,101047.13
2022-10-19T23:54:57.171Z,101047.44
2022-10-19T23:57:23.687Z,101043.88
2022-10-19T23:59:50.310Z,101043.88
